Time;durP1;ratioP1;P1;durP2;ratioP2;P2;SDS_P1;SDS_P2;PMS_P1;PMS_P2;Temp;Humidity;BMP_temperature;BMP_pressure;BME280_temperature;BME280_humidity;BME280_pressure;Samples;Min_cycle;Max_cycle;Signal;HPM_P1;HPM_P2
2021/01/19 00:00:07;;;;;;;3.83;3.47;;;1.80;99.90;;;;;;4876553;29;20410;-80
2021/01/19 00:02:38;;;;;;;3.65;3.35;;;1.80;99.90;;;;;;4879808;28;20899;-79
2021/01/19 00:05:04;;;;;;;3.38;3.08;;;1.80;99.90;;;;;;4888663;29;20467;-87
2021/01/19 00:07:29;;;;;;;3.28;3.08;;;1.70;99.90;;;;;;4869210;29;20841;-82
2021/01/19 00:09:55;;;;;;;3.87;3.00;;;1.80;99.90;;;;;;4879587;28;20413;-80
2021/01/19 00:12:21;;;;;;;3.03;2.73;;;1.70;99.90;;;;;;4882263;28;20422;-81
2021/01/19 00:14:47;;;;;;;3.60;3.20;;;1.70;99.90;;;;;;4865954;28;20505;-81
2021/01/19 00:17:20;;;;;;;3.42;2.83;;;1.70;99.90;;;;;;4866100;29;20753;-79
2021/01/19 00:19:46;;;;;;;3.95;3.55;;;1.70;99.90;;;;;;4862576;29;20405;-80
2021/01/19 00:22:12;;;;;;;4.40;3.03;;;1.70;99.90;;;;;;4889994;28;20423;-79
2021/01/19 00:24:38;;;;;;;3.73;3.23;;;1.80;99.90;;;;;;4864663;28;20421;-82
2021/01/19 00:27:04;;;;;;;3.28;3.00;;;1.70;99.90;;;;;;4875342;29;20478;-80
2021/01/19 00:29:29;;;;;;;3.35;3.03;;;1.70;99.90;;;;;;4860908;29;20444;-82
2021/01/19 00:31:55;;;;;;;4.10;3.10;;;1.70;99.90;;;;;;4883036;28;20420;-78
2021/01/19 00:34:21;;;;;;;3.40;3.10;;;1.70;99.90;;;;;;4896146;28;20414;-79
2021/01/19 00:36:47;;;;;;;3.50;3.20;;;1.70;99.90;;;;;;4951295;28;20396;-76
2021/01/19 00:39:13;;;;;;;5.45;3.40;;;1.80;99.90;;;;;;4880433;29;20400;-79
2021/01/19 00:41:39;;;;;;;3.53;3.22;;;1.80;99.90;;;;;;4869414;28;20401;-82
2021/01/19 00:44:05;;;;;;;3.10;2.80;;;1.80;99.90;;;;;;4889506;29;20474;-77
2021/01/19 00:46:31;;;;;;;4.00;3.33;;;1.70;99.90;;;;;;4866580;28;20824;-79
2021/01/19 00:48:56;;;;;;;3.30;3.00;;;1.70;99.90;;;;;;4852575;29;20461;-79
2021/01/19 00:51:23;;;;;;;3.37;3.07;;;1.70;99.90;;;;;;4862960;29;20421;-77
2021/01/19 00:53:49;;;;;;;3.92;3.50;;;1.80;99.90;;;;;;4852970;29;20810;-82
2021/01/19 00:56:14;;;;;;;3.53;3.23;;;1.80;99.90;;;;;;4930249;28;20417;-82
2021/01/19 00:58:40;;;;;;;3.63;3.30;;;1.80;99.90;;;;;;4883793;28;20416;-83
2021/01/19 01:01:06;;;;;;;3.22;2.95;;;1.90;99.90;;;;;;4904973;29;21262;-79
2021/01/19 01:03:33;;;;;;;3.60;3.20;;;1.80;99.90;;;;;;4890478;28;20413;-80
2021/01/19 01:05:59;;;;;;;4.20;3.38;;;1.80;99.90;;;;;;4871866;29;20427;-80
2021/01/19 01:08:25;;;;;;;3.63;3.28;;;1.80;99.90;;;;;;4902961;28;20440;-81
2021/01/19 01:10:51;;;;;;;3.35;3.00;;;1.80;99.90;;;;;;4872473;29;20407;-81
2021/01/19 01:13:17;;;;;;;3.83;3.47;;;1.90;99.90;;;;;;4887630;29;20416;-83
2021/01/19 01:15:43;;;;;;;4.40;3.50;;;1.90;99.90;;;;;;4876763;28;20423;-78
2021/01/19 01:18:12;;;;;;;3.80;3.40;;;1.90;99.90;;;;;;4852150;29;20762;-79
2021/01/19 01:20:39;;;;;;;4.05;3.58;;;1.90;99.90;;;;;;4854067;29;20994;-80
2021/01/19 01:23:04;;;;;;;3.78;3.47;;;1.90;99.90;;;;;;4848064;28;20422;-79
2021/01/19 01:25:30;;;;;;;4.07;3.67;;;1.90;99.90;;;;;;4874571;28;20406;-79
2021/01/19 01:27:56;;;;;;;3.20;3.00;;;1.90;99.90;;;;;;4864311;29;20415;-78
2021/01/19 01:30:22;;;;;;;4.13;3.55;;;1.90;99.90;;;;;;4867029;29;20407;-82
2021/01/19 01:32:50;;;;;;;3.70;3.40;;;1.90;99.90;;;;;;4837650;29;21882;-78
2021/01/19 01:35:16;;;;;;;4.30;3.90;;;1.90;99.90;;;;;;4860859;29;20425;-78
2021/01/19 01:37:55;;;;;;;4.63;3.47;;;1.90;99.90;;;;;;4863969;28;20405;-78
2021/01/19 01:40:25;;;;;;;6.00;3.80;;;2.00;99.90;;;;;;4841848;29;20470;-80
2021/01/19 01:42:57;;;;;;;4.00;3.60;;;1.90;99.90;;;;;;4883375;29;20453;-79
2021/01/19 01:45:24;;;;;;;3.67;3.38;;;1.90;99.90;;;;;;4868056;28;20421;-79
2021/01/19 01:47:50;;;;;;;4.17;3.57;;;1.90;99.90;;;;;;4876619;28;20498;-77
2021/01/19 01:50:16;;;;;;;3.93;3.50;;;1.90;99.90;;;;;;4865775;28;20412;-77
2021/01/19 01:52:42;;;;;;;4.95;3.88;;;1.90;99.90;;;;;;4852140;29;20409;-77
2021/01/19 01:55:08;;;;;;;3.90;3.50;;;2.00;99.90;;;;;;4886744;28;20437;-80
2021/01/19 01:57:35;;;;;;;3.78;3.42;;;1.90;99.90;;;;;;4881565;28;20404;-77
2021/01/19 02:00:00;;;;;;;3.95;3.55;;;2.00;99.90;;;;;;4849116;28;20462;-78
2021/01/19 02:02:26;;;;;;;4.68;3.60;;;2.00;99.90;;;;;;4862612;29;20406;-77
2021/01/19 02:04:52;;;;;;;3.60;3.30;;;2.00;99.90;;;;;;4853809;28;20411;-78
2021/01/19 02:07:45;;;;;;;5.03;3.90;;;2.00;99.90;;;;;;4886303;28;20898;-77
2021/01/19 02:10:41;;;;;;;6.40;3.45;;;2.00;99.90;;;;;;4884601;28;20422;-79
2021/01/19 02:13:30;;;;;;;4.43;3.60;;;2.00;99.90;;;;;;4875230;29;20485;-79
2021/01/19 02:16:31;;;;;;;4.70;3.72;;;2.00;99.90;;;;;;4862339;28;20438;-77
2021/01/19 02:19:01;;;;;;;4.90;3.50;;;2.10;99.90;;;;;;4851665;28;20453;-78
2021/01/19 02:22:01;;;;;;;4.40;4.00;;;2.00;99.90;;;;;;4872300;28;20420;-86
2021/01/19 02:24:29;;;;;;;5.10;3.80;;;2.10;99.90;;;;;;4852875;29;20419;-82
2021/01/19 02:26:58;;;;;;;4.97;3.85;;;2.20;99.90;;;;;;4872637;29;20432;-78
2021/01/19 02:29:27;;;;;;;4.47;3.47;;;2.10;99.90;;;;;;4877380;29;20412;-78
2021/01/19 02:32:17;;;;;;;4.60;3.72;;;2.00;99.90;;;;;;4896475;28;20421;-80
2021/01/19 02:35:28;;;;;;;5.18;4.13;;;2.10;99.90;;;;;;4876797;29;20418;-81
2021/01/19 02:38:07;;;;;;;3.80;3.50;;;2.00;99.90;;;;;;4924230;29;20799;-82
2021/01/19 02:40:33;;;;;;;5.13;3.97;;;2.10;99.90;;;;;;4865329;29;20485;-78
2021/01/19 02:43:13;;;;;;;4.18;3.78;;;2.10;99.90;;;;;;4871029;29;20468;-79
2021/01/19 02:45:39;;;;;;;4.65;4.00;;;2.10;99.90;;;;;;4851199;29;20411;-79
2021/01/19 02:48:05;;;;;;;4.93;3.80;;;2.10;99.90;;;;;;4840403;28;20223;-80
2021/01/19 02:50:31;;;;;;;3.40;3.10;;;2.10;99.90;;;;;;4872504;28;20228;-78
2021/01/19 02:52:58;;;;;;;3.80;3.50;;;2.10;99.90;;;;;;4846808;29;20488;-78
2021/01/19 02:55:24;;;;;;;3.57;3.27;;;2.10;99.90;;;;;;4851175;28;20236;-79
2021/01/19 02:58:00;;;;;;;3.73;3.40;;;2.10;99.90;;;;;;4834490;29;20427;-78
2021/01/19 03:00:43;;;;;;;4.47;3.90;;;2.10;99.90;;;;;;4863081;29;20415;-79
2021/01/19 03:03:09;;;;;;;5.95;4.15;;;2.00;99.90;;;;;;4860206;29;20896;-78
2021/01/19 03:05:35;;;;;;;4.95;3.95;;;2.10;99.90;;;;;;4883894;28;20414;-78
2021/01/19 03:08:04;;;;;;;4.95;3.80;;;2.10;99.90;;;;;;4866187;29;20402;-77
2021/01/19 03:10:29;;;;;;;4.20;3.80;;;2.10;99.90;;;;;;4878974;29;20415;-79
2021/01/19 03:12:55;;;;;;;4.30;3.90;;;2.10;99.90;;;;;;4891903;28;21002;-78
2021/01/19 03:15:21;;;;;;;4.30;3.80;;;2.10;99.90;;;;;;4870076;29;20412;-78
2021/01/19 03:17:47;;;;;;;6.00;4.30;;;2.10;99.90;;;;;;4857037;29;20490;-82
2021/01/19 03:20:14;;;;;;;4.87;3.93;;;2.10;99.90;;;;;;4874955;29;20464;-76
2021/01/19 03:22:40;;;;;;;3.90;3.60;;;2.10;99.90;;;;;;4892254;29;20406;-79
2021/01/19 03:25:07;;;;;;;5.05;3.72;;;2.20;99.90;;;;;;4890509;29;20422;-77
2021/01/19 03:27:32;;;;;;;7.03;4.07;;;2.10;99.90;;;;;;4915076;29;20402;-78
2021/01/19 03:29:58;;;;;;;4.25;3.83;;;2.20;99.90;;;;;;4858838;29;20412;-78
2021/01/19 03:32:24;;;;;;;5.25;4.20;;;2.20;99.90;;;;;;4839780;28;20404;-78
2021/01/19 03:34:49;;;;;;;4.27;3.87;;;2.20;99.90;;;;;;4899395;28;20455;-78
2021/01/19 03:37:15;;;;;;;5.72;4.25;;;2.10;99.90;;;;;;4886352;28;20446;-78
2021/01/19 03:39:41;;;;;;;4.03;3.63;;;2.20;99.90;;;;;;4899220;29;20395;-78
2021/01/19 03:42:06;;;;;;;5.70;3.85;;;2.20;99.90;;;;;;4887525;29;20923;-80
2021/01/19 03:44:32;;;;;;;5.45;4.28;;;2.20;99.90;;;;;;4880050;28;20409;-78
2021/01/19 03:46:58;;;;;;;4.70;3.83;;;2.20;99.90;;;;;;4874675;29;20412;-75
2021/01/19 03:49:23;;;;;;;4.20;3.67;;;2.20;99.90;;;;;;4871357;28;20425;-78
2021/01/19 03:51:49;;;;;;;5.80;3.72;;;2.20;99.90;;;;;;4852284;29;20418;-79
2021/01/19 03:54:15;;;;;;;4.23;3.83;;;2.20;99.90;;;;;;4867720;29;20457;-79
2021/01/19 03:56:40;;;;;;;5.15;4.10;;;2.20;99.90;;;;;;4853904;29;20421;-76
2021/01/19 03:59:06;;;;;;;4.30;3.73;;;2.20;99.90;;;;;;4869105;29;20406;-77
2021/01/19 04:01:32;;;;;;;5.20;3.53;;;2.10;99.90;;;;;;4891402;28;20407;-76
2021/01/19 04:03:57;;;;;;;6.25;3.92;;;2.10;99.90;;;;;;4941652;28;20407;-76
2021/01/19 04:06:23;;;;;;;5.03;3.73;;;2.10;99.90;;;;;;4862504;28;20402;-78
2021/01/19 04:08:49;;;;;;;5.00;3.78;;;2.10;99.90;;;;;;4879764;29;20513;-76
2021/01/19 04:11:14;;;;;;;4.57;3.83;;;2.10;99.90;;;;;;4857752;28;20395;-76
2021/01/19 04:13:40;;;;;;;3.90;3.50;;;2.10;99.90;;;;;;4861650;29;20430;-75
2021/01/19 04:16:06;;;;;;;5.00;3.88;;;2.00;99.90;;;;;;4838283;29;20563;-76
2021/01/19 04:18:31;;;;;;;4.47;3.75;;;2.00;99.90;;;;;;4888062;28;20406;-77
2021/01/19 04:20:57;;;;;;;4.03;3.53;;;2.00;99.90;;;;;;4857976;28;20461;-76
2021/01/19 04:23:23;;;;;;;4.20;3.80;;;2.00;99.90;;;;;;4861455;29;20443;-77
2021/01/19 04:25:49;;;;;;;4.32;3.92;;;2.00;99.90;;;;;;4861934;29;20941;-76
2021/01/19 04:28:15;;;;;;;4.20;3.80;;;2.00;99.90;;;;;;4864390;29;20445;-77
2021/01/19 04:30:41;;;;;;;4.20;3.80;;;2.00;99.90;;;;;;4864400;29;20420;-77
2021/01/19 04:33:07;;;;;;;5.13;3.53;;;2.00;99.90;;;;;;4850002;29;20825;-76
2021/01/19 04:35:32;;;;;;;5.72;3.97;;;2.00;99.90;;;;;;4863380;29;20427;-76
2021/01/19 04:37:58;;;;;;;4.30;3.88;;;2.00;99.90;;;;;;4846908;28;20421;-76
2021/01/19 04:40:24;;;;;;;4.10;3.67;;;2.00;99.90;;;;;;4847256;29;20410;-76
2021/01/19 04:42:49;;;;;;;5.10;4.10;;;2.00;99.90;;;;;;4887832;29;20921;-79
2021/01/19 04:45:15;;;;;;;4.78;4.03;;;2.00;99.90;;;;;;4902263;29;20983;-76
2021/01/19 04:47:41;;;;;;;4.75;3.50;;;2.00;99.90;;;;;;4878783;29;20399;-75
2021/01/19 04:50:11;;;;;;;3.70;3.37;;;2.00;99.90;;;;;;4868705;28;20448;-76
2021/01/19 04:52:44;;;;;;;4.40;3.95;;;2.00;99.90;;;;;;4884832;29;20430;-75
2021/01/19 04:55:11;;;;;;;4.03;3.40;;;2.10;99.90;;;;;;4902029;29;20417;-76
2021/01/19 04:57:40;;;;;;;3.90;3.50;;;2.00;99.90;;;;;;4907989;28;20812;-75
2021/01/19 05:00:11;;;;;;;4.15;3.42;;;2.00;99.90;;;;;;4895084;28;20504;-76
2021/01/19 05:03:01;;;;;;;5.75;3.83;;;2.00;99.90;;;;;;4871645;28;20411;-77
2021/01/19 05:05:37;;;;;;;4.13;3.73;;;2.00;99.90;;;;;;4856366;29;20551;-75
2021/01/19 05:08:15;;;;;;;4.50;3.60;;;2.00;99.90;;;;;;4850359;29;20391;-76
2021/01/19 05:10:41;;;;;;;3.40;3.10;;;2.10;99.90;;;;;;4858607;28;20921;-75
2021/01/19 05:13:10;;;;;;;3.65;3.35;;;2.00;99.90;;;;;;4856779;28;20426;-76
2021/01/19 05:15:43;;;;;;;3.92;3.63;;;2.00;99.90;;;;;;4857567;29;20431;-75
2021/01/19 05:18:13;;;;;;;4.13;3.70;;;2.00;99.90;;;;;;4884473;28;20408;-76
2021/01/19 05:20:47;;;;;;;4.40;3.88;;;2.00;99.90;;;;;;4845686;29;20466;-76
2021/01/19 05:23:23;;;;;;;4.80;3.30;;;2.00;99.90;;;;;;4857032;28;20563;-75
2021/01/19 05:25:55;;;;;;;3.40;3.17;;;2.00;99.90;;;;;;4870766;28;20413;-74
2021/01/19 05:28:36;;;;;;;4.37;3.50;;;1.90;99.90;;;;;;4872589;29;20495;-74
2021/01/19 05:31:18;;;;;;;3.92;3.30;;;2.00;99.90;;;;;;4836342;29;20418;-74
2021/01/19 05:33:53;;;;;;;3.78;3.47;;;2.00;99.90;;;;;;4856011;28;20465;-76
2021/01/19 05:36:19;;;;;;;4.33;3.93;;;2.00;99.90;;;;;;4850879;28;20488;-75
2021/01/19 05:38:51;;;;;;;4.65;3.58;;;2.00;99.90;;;;;;4885088;29;20883;-73
2021/01/19 05:41:35;;;;;;;4.47;4.07;;;2.00;99.90;;;;;;4847125;29;20431;-75
2021/01/19 05:44:19;;;;;;;3.87;3.47;;;2.00;99.90;;;;;;4900496;28;20522;-76
2021/01/19 05:46:48;;;;;;;3.60;3.30;;;2.00;99.90;;;;;;4892721;28;20426;-76
2021/01/19 05:49:18;;;;;;;4.35;3.83;;;2.00;99.90;;;;;;4890357;28;20422;-75
2021/01/19 05:51:45;;;;;;;4.80;3.80;;;2.00;99.90;;;;;;4904006;28;21109;-76
2021/01/19 05:54:21;;;;;;;6.10;3.57;;;2.10;99.90;;;;;;4886424;28;20411;-75
2021/01/19 05:56:48;;;;;;;4.80;3.80;;;2.10;99.90;;;;;;4847122;29;20431;-75
2021/01/19 05:59:25;;;;;;;3.90;3.53;;;2.10;99.90;;;;;;4880730;28;20402;-76
2021/01/19 06:02:00;;;;;;;3.92;3.53;;;2.10;99.90;;;;;;4922235;28;20444;-75
2021/01/19 06:04:30;;;;;;;3.67;3.30;;;2.10;99.90;;;;;;4865115;28;20422;-75
2021/01/19 06:06:56;;;;;;;4.20;3.63;;;2.10;99.90;;;;;;4841589;29;20825;-75
2021/01/19 06:09:22;;;;;;;5.18;4.43;;;2.10;99.90;;;;;;4890236;29;20426;-77
2021/01/19 06:11:52;;;;;;;9.95;5.97;;;2.20;99.90;;;;;;4872239;29;20424;-76
2021/01/19 06:14:22;;;;;;;7.90;5.10;;;2.10;99.90;;;;;;4876019;29;20398;-77
2021/01/19 06:16:48;;;;;;;10.43;7.40;;;2.20;99.90;;;;;;4876973;28;20434;-77
2021/01/19 06:19:32;;;;;;;16.73;10.55;;;2.20;99.90;;;;;;4855411;29;20446;-76
2021/01/19 06:21:58;;;;;;;14.82;8.10;;;2.20;99.90;;;;;;4841989;29;20427;-75
2021/01/19 06:24:34;;;;;;;9.02;6.50;;;2.20;99.90;;;;;;4866508;28;20411;-75
2021/01/19 06:27:00;;;;;;;5.05;4.30;;;2.20;99.90;;;;;;4846954;29;20475;-75
2021/01/19 06:29:27;;;;;;;3.88;3.50;;;2.20;99.90;;;;;;4919127;28;20417;-75
2021/01/19 06:31:55;;;;;;;4.47;3.72;;;2.20;99.90;;;;;;4862551;29;20425;-76
2021/01/19 06:34:25;;;;;;;3.80;3.50;;;2.20;99.90;;;;;;4834784;29;20911;-75
2021/01/19 06:36:50;;;;;;;3.47;3.17;;;2.20;99.90;;;;;;4869792;29;20406;-75
2021/01/19 06:39:28;;;;;;;3.63;3.30;;;2.20;99.90;;;;;;4860337;29;20926;-75
2021/01/19 06:42:02;;;;;;;3.78;3.42;;;2.20;99.90;;;;;;4914906;29;20411;-75
2021/01/19 06:44:27;;;;;;;3.50;3.20;;;2.20;99.90;;;;;;4877464;29;20914;-75
2021/01/19 06:46:53;;;;;;;3.42;3.08;;;2.20;99.90;;;;;;4883248;28;20415;-75
2021/01/19 06:49:18;;;;;;;3.70;2.88;;;2.20;99.90;;;;;;4881338;28;20790;-73
2021/01/19 06:51:44;;;;;;;3.27;2.97;;;2.20;99.90;;;;;;4853098;29;20471;-75
2021/01/19 06:54:10;;;;;;;4.00;3.30;;;2.10;99.90;;;;;;4852020;28;20420;-75
2021/01/19 06:56:38;;;;;;;5.07;3.20;;;2.10;99.90;;;;;;4867002;29;20426;-75
2021/01/19 06:59:07;;;;;;;7.50;3.95;;;2.10;99.90;;;;;;4838478;28;20408;-74
2021/01/19 07:01:33;;;;;;;8.63;4.22;;;2.10;99.90;;;;;;4900154;29;20908;-74
2021/01/19 07:04:23;;;;;;;3.90;3.30;;;2.10;99.90;;;;;;4865778;28;20442;-74
2021/01/19 07:07:18;;;;;;;4.63;3.40;;;2.10;99.90;;;;;;4861381;29;20449;-74
2021/01/19 07:10:06;;;;;;;5.50;4.75;;;2.10;99.90;;;;;;4908992;29;20513;-74
2021/01/19 07:12:51;;;;;;;6.07;5.10;;;2.10;99.90;;;;;;4881665;29;20445;-74
2021/01/19 07:15:18;;;;;;;5.47;3.75;;;2.10;99.90;;;;;;4873756;29;20439;-75
2021/01/19 07:18:10;;;;;;;5.22;4.72;;;2.10;99.90;;;;;;4860923;29;20417;-74
2021/01/19 07:20:35;;;;;;;3.80;3.28;;;2.10;99.90;;;;;;4872393;28;20484;-74
2021/01/19 07:23:02;;;;;;;3.10;2.80;;;2.10;99.90;;;;;;4874100;29;20420;-74
2021/01/19 07:25:28;;;;;;;3.45;3.15;;;2.10;99.90;;;;;;4850873;29;20429;-73
2021/01/19 07:27:54;;;;;;;4.28;3.13;;;2.10;99.90;;;;;;4877052;28;20423;-74
2021/01/19 07:30:21;;;;;;;3.35;2.85;;;2.10;99.90;;;;;;4895972;29;20415;-77
2021/01/19 07:32:50;;;;;;;3.10;2.78;;;2.20;99.90;;;;;;4896675;28;20421;-74
2021/01/19 07:35:17;;;;;;;3.10;2.78;;;2.20;99.90;;;;;;4936390;29;20905;-73
2021/01/19 07:37:43;;;;;;;2.90;2.63;;;2.10;99.90;;;;;;4902627;29;20408;-74
2021/01/19 07:40:18;;;;;;;2.75;2.53;;;2.20;99.90;;;;;;4869681;28;20421;-75
2021/01/19 07:42:44;;;;;;;3.85;3.42;;;2.20;99.90;;;;;;4869190;28;20998;-73
2021/01/19 07:45:10;;;;;;;4.32;3.00;;;2.20;99.90;;;;;;4860349;29;20433;-74
2021/01/19 07:47:40;;;;;;;3.38;3.08;;;2.20;99.90;;;;;;4868301;28;20418;-74
2021/01/19 07:50:18;;;;;;;3.53;2.70;;;2.20;99.90;;;;;;4858321;29;20416;-74
2021/01/19 07:52:44;;;;;;;2.55;2.35;;;2.30;99.90;;;;;;4936413;28;20407;-74
2021/01/19 07:55:17;;;;;;;2.60;2.40;;;2.20;99.90;;;;;;4874181;28;20830;-73
2021/01/19 07:57:44;;;;;;;3.53;3.00;;;2.30;99.90;;;;;;4905174;28;20393;-74
2021/01/19 08:00:11;;;;;;;3.40;2.80;;;2.30;99.90;;;;;;4887233;28;20412;-74
2021/01/19 08:02:37;;;;;;;2.22;2.13;;;2.30;99.90;;;;;;4875386;28;20425;-74
2021/01/19 08:05:06;;;;;;;2.83;2.53;;;2.40;99.90;;;;;;4862773;28;20488;-74
2021/01/19 08:07:44;;;;;;;2.42;2.22;;;2.40;99.90;;;;;;4885054;29;21246;-74
2021/01/19 08:10:20;;;;;;;4.57;2.88;;;2.40;99.90;;;;;;4860107;29;20438;-74
2021/01/19 08:12:52;;;;;;;3.22;2.92;;;2.40;99.90;;;;;;4869153;28;20775;-74
2021/01/19 08:15:19;;;;;;;2.70;2.35;;;2.50;99.90;;;;;;4856077;29;20425;-73
2021/01/19 08:17:52;;;;;;;3.45;2.53;;;2.50;99.90;;;;;;4843642;29;20407;-75
2021/01/19 08:20:32;;;;;;;2.50;2.30;;;2.50;99.90;;;;;;4904499;28;20399;-75
2021/01/19 08:23:24;;;;;;;4.65;2.70;;;2.50;99.90;;;;;;4867487;29;21134;-75
2021/01/19 08:25:49;;;;;;;1.80;1.70;;;2.50;99.90;;;;;;4894762;29;20416;-75
2021/01/19 08:28:15;;;;;;;4.17;2.90;;;2.60;99.90;;;;;;4907989;29;20471;-75
2021/01/19 08:30:42;;;;;;;2.63;2.42;;;2.60;99.90;;;;;;4849765;29;20410;-74
2021/01/19 08:33:07;;;;;;;2.50;2.30;;;2.60;99.90;;;;;;4840384;28;20859;-75
2021/01/19 08:35:33;;;;;;;2.60;2.40;;;2.60;99.90;;;;;;4862455;29;20421;-73
2021/01/19 08:38:00;;;;;;;2.92;2.70;;;2.60;99.90;;;;;;4874132;28;20438;-74
2021/01/19 08:40:27;;;;;;;3.40;3.10;;;2.60;99.90;;;;;;4854546;29;20404;-74
2021/01/19 08:42:53;;;;;;;2.83;2.60;;;2.60;99.90;;;;;;4839954;29;20954;-74
2021/01/19 08:45:23;;;;;;;3.25;2.83;;;2.60;99.90;;;;;;4874209;28;20415;-73
2021/01/19 08:47:53;;;;;;;2.90;2.65;;;2.70;99.90;;;;;;4871241;28;20515;-74
2021/01/19 08:50:19;;;;;;;4.05;2.88;;;2.70;99.90;;;;;;4842271;29;20455;-74
2021/01/19 08:52:44;;;;;;;3.00;2.63;;;2.70;99.90;;;;;;4838015;29;20420;-74
2021/01/19 08:55:17;;;;;;;2.90;2.60;;;2.60;99.90;;;;;;4873976;28;20457;-74
2021/01/19 08:57:43;;;;;;;3.45;2.90;;;2.70;99.90;;;;;;4834180;28;20415;-74
2021/01/19 09:00:10;;;;;;;4.47;3.40;;;2.70;99.90;;;;;;4867837;29;20410;-74
2021/01/19 09:02:35;;;;;;;4.15;2.95;;;2.70;99.90;;;;;;4884990;29;20547;-73
2021/01/19 09:05:01;;;;;;;3.88;2.92;;;2.70;99.90;;;;;;4859317;29;20480;-74
2021/01/19 09:07:30;;;;;;;2.93;2.60;;;2.70;99.90;;;;;;4883122;29;20418;-73
2021/01/19 09:09:55;;;;;;;2.90;2.70;;;2.80;99.90;;;;;;4848670;28;20430;-73
2021/01/19 09:12:21;;;;;;;2.92;2.55;;;2.80;99.90;;;;;;4863605;29;20416;-73
2021/01/19 09:14:50;;;;;;;3.70;2.77;;;2.90;99.90;;;;;;4878342;29;20435;-73
2021/01/19 09:17:22;;;;;;;3.33;3.03;;;2.80;99.90;;;;;;4838456;28;20438;-73
2021/01/19 09:19:48;;;;;;;2.80;2.47;;;2.80;99.90;;;;;;4866574;29;20414;-73
2021/01/19 09:22:25;;;;;;;2.50;2.30;;;2.90;99.90;;;;;;4884275;28;20393;-73
2021/01/19 09:24:52;;;;;;;3.20;2.73;;;2.90;99.90;;;;;;4866763;28;20423;-73
2021/01/19 09:27:18;;;;;;;2.33;2.13;;;2.90;99.90;;;;;;4864818;28;20477;-73
2021/01/19 09:29:44;;;;;;;3.23;2.33;;;3.00;99.90;;;;;;4869138;29;20869;-74
2021/01/19 09:32:10;;;;;;;2.25;2.05;;;3.00;99.90;;;;;;4867699;28;20394;-73
2021/01/19 09:34:36;;;;;;;2.43;2.23;;;3.00;99.90;;;;;;4915556;29;20407;-73
2021/01/19 09:37:04;;;;;;;3.83;2.20;;;3.00;99.90;;;;;;4909424;28;20420;-74
2021/01/19 09:39:30;;;;;;;2.58;2.38;;;3.10;99.90;;;;;;4888919;28;20400;-73
2021/01/19 09:41:58;;;;;;;4.83;2.83;;;3.20;99.90;;;;;;4847311;29;20530;-73
2021/01/19 09:44:24;;;;;;;3.58;2.30;;;3.10;99.90;;;;;;4927017;28;20388;-73
2021/01/19 09:46:52;;;;;;;2.95;2.38;;;3.10;99.90;;;;;;4850188;29;20926;-73
2021/01/19 09:49:21;;;;;;;3.42;2.50;;;3.20;99.90;;;;;;4855438;29;20974;-73
2021/01/19 09:51:47;;;;;;;2.63;2.40;;;3.20;99.90;;;;;;4873795;29;20408;-73
2021/01/19 09:54:13;;;;;;;2.92;2.42;;;3.30;99.90;;;;;;4895903;28;20411;-73
2021/01/19 09:56:38;;;;;;;3.07;2.10;;;3.30;99.90;;;;;;4871924;29;20463;-73
2021/01/19 09:59:05;;;;;;;4.22;2.20;;;3.30;99.90;;;;;;4844475;28;20456;-73
2021/01/19 10:01:30;;;;;;;3.17;2.50;;;3.40;99.90;;;;;;4854733;28;20424;-74
2021/01/19 10:03:56;;;;;;;2.95;2.60;;;3.40;99.90;;;;;;4847981;28;20423;-74
2021/01/19 10:06:24;;;;;;;2.50;2.30;;;3.40;99.90;;;;;;4892775;28;20411;-74
2021/01/19 10:08:52;;;;;;;3.42;2.20;;;3.40;99.90;;;;;;4853177;28;20493;-74
2021/01/19 10:11:37;;;;;;;2.58;2.30;;;3.40;99.90;;;;;;4877981;28;20425;-74
2021/01/19 10:14:17;;;;;;;2.83;2.13;;;3.40;99.90;;;;;;4854111;29;20431;-74
2021/01/19 10:16:49;;;;;;;2.47;2.28;;;3.40;99.90;;;;;;4850921;29;21214;-75
2021/01/19 10:19:23;;;;;;;3.55;2.30;;;3.40;99.90;;;;;;4863284;28;22243;-74
2021/01/19 10:21:50;;;;;;;2.38;2.17;;;3.40;99.90;;;;;;4862303;28;20787;-75
2021/01/19 10:24:17;;;;;;;3.72;2.53;;;3.40;99.90;;;;;;4825113;29;20529;-75
2021/01/19 10:27:01;;;;;;;2.97;2.25;;;3.40;99.90;;;;;;4849584;29;20423;-76
2021/01/19 10:29:28;;;;;;;2.73;2.40;;;3.40;99.90;;;;;;4878387;28;20439;-74
2021/01/19 10:32:00;;;;;;;5.07;2.33;;;3.40;99.90;;;;;;4865808;28;20470;-75
2021/01/19 10:34:27;;;;;;;2.58;2.03;;;3.50;99.90;;;;;;4885691;28;20558;-75
2021/01/19 10:36:54;;;;;;;2.63;2.00;;;3.50;99.90;;;;;;4885712;29;20414;-75
2021/01/19 10:39:20;;;;;;;1.90;1.80;;;3.50;99.90;;;;;;4853997;29;20420;-75
2021/01/19 10:41:46;;;;;;;2.40;2.15;;;3.60;99.90;;;;;;4859302;29;20487;-75
2021/01/19 10:44:12;;;;;;;3.75;2.00;;;3.50;99.90;;;;;;4911631;29;20489;-75
2021/01/19 10:46:38;;;;;;;1.83;1.73;;;3.60;99.90;;;;;;4844484;29;21072;-75
2021/01/19 10:49:11;;;;;;;2.20;2.00;;;3.60;99.90;;;;;;4870491;29;20880;-75
2021/01/19 10:51:37;;;;;;;2.13;1.92;;;3.60;99.90;;;;;;4853254;28;20414;-75
2021/01/19 10:54:10;;;;;;;3.22;1.90;;;3.60;99.90;;;;;;4872312;29;21191;-75
2021/01/19 10:56:36;;;;;;;4.90;1.83;;;3.70;99.90;;;;;;4855923;28;20464;-75
2021/01/19 10:59:02;;;;;;;2.28;1.77;;;3.70;99.90;;;;;;4855070;28;20448;-75
2021/01/19 11:01:28;;;;;;;2.25;1.65;;;3.70;99.90;;;;;;4879768;28;20922;-75
2021/01/19 11:03:53;;;;;;;2.20;1.80;;;3.80;99.90;;;;;;4855903;28;20412;-75
2021/01/19 11:06:20;;;;;;;1.50;1.40;;;3.80;99.90;;;;;;4856120;28;20495;-75
2021/01/19 11:08:46;;;;;;;2.53;1.80;;;3.80;99.90;;;;;;4848255;29;20491;-75
2021/01/19 11:11:12;;;;;;;2.50;1.90;;;3.80;99.90;;;;;;4865412;29;20406;-75
2021/01/19 11:13:38;;;;;;;1.60;1.50;;;3.80;99.90;;;;;;4851155;29;20404;-75
2021/01/19 11:16:04;;;;;;;2.50;1.90;;;3.80;99.90;;;;;;4851071;28;20946;-75
2021/01/19 11:18:30;;;;;;;1.87;1.67;;;3.80;99.90;;;;;;4857985;29;20429;-75
2021/01/19 11:20:56;;;;;;;2.38;1.60;;;3.90;99.90;;;;;;4840387;29;20913;-75
2021/01/19 11:23:21;;;;;;;2.83;1.63;;;3.80;99.90;;;;;;4835388;29;20424;-76
2021/01/19 11:25:47;;;;;;;3.20;1.80;;;3.80;99.90;;;;;;4887895;29;20404;-75
2021/01/19 11:28:13;;;;;;;2.27;1.80;;;3.90;99.90;;;;;;4846689;29;20925;-76
2021/01/19 11:30:40;;;;;;;3.42;1.80;;;4.10;99.90;;;;;;4868894;28;20401;-76
2021/01/19 11:33:05;;;;;;;4.80;2.25;;;3.90;99.90;;;;;;4842278;28;20404;-76
2021/01/19 11:35:35;;;;;;;4.50;2.20;;;4.00;99.90;;;;;;4856293;28;20458;-76
2021/01/19 11:38:04;;;;;;;1.60;1.50;;;4.00;99.90;;;;;;4861969;29;20411;-75
2021/01/19 11:40:30;;;;;;;1.95;1.60;;;3.90;99.90;;;;;;4865596;28;20425;-75
2021/01/19 11:42:56;;;;;;;1.60;1.50;;;4.00;99.90;;;;;;4850858;29;20400;-75
2021/01/19 11:45:21;;;;;;;3.77;2.20;;;4.10;99.90;;;;;;4883080;28;20415;-76
2021/01/19 11:47:47;;;;;;;3.50;1.60;;;3.90;99.90;;;;;;4867717;28;20957;-76
2021/01/19 11:50:13;;;;;;;4.13;1.90;;;3.90;99.90;;;;;;4872811;29;20411;-76
2021/01/19 11:52:39;;;;;;;3.22;1.92;;;3.90;99.90;;;;;;4853408;29;20420;-76
2021/01/19 11:55:07;;;;;;;1.73;1.60;;;3.90;99.90;;;;;;4856400;29;20426;-76
2021/01/19 11:57:40;;;;;;;2.60;1.65;;;3.90;99.90;;;;;;4892371;28;20407;-77
2021/01/19 12:00:09;;;;;;;1.77;1.67;;;3.90;99.90;;;;;;4853311;28;20407;-77
2021/01/19 12:02:35;;;;;;;4.45;1.70;;;3.90;99.90;;;;;;4845974;29;20414;-77
2021/01/19 12:05:01;;;;;;;3.75;2.03;;;3.90;99.90;;;;;;4874518;29;20400;-76
2021/01/19 12:07:26;;;;;;;1.63;1.52;;;3.90;99.90;;;;;;4854354;28;20427;-77
2021/01/19 12:09:52;;;;;;;2.20;1.90;;;3.90;99.90;;;;;;4863244;28;20626;-76
2021/01/19 12:12:18;;;;;;;1.90;1.63;;;3.90;99.90;;;;;;4847884;28;20446;-77
2021/01/19 12:14:44;;;;;;;3.17;1.70;;;3.90;99.90;;;;;;4821528;28;20426;-77
2021/01/19 12:17:09;;;;;;;1.65;1.55;;;4.00;99.90;;;;;;4835780;28;20798;-77
2021/01/19 12:19:35;;;;;;;1.70;1.60;;;3.90;99.90;;;;;;4875784;28;20407;-76
2021/01/19 12:22:01;;;;;;;2.72;1.95;;;3.90;99.90;;;;;;4869528;28;20404;-76
2021/01/19 12:24:26;;;;;;;2.42;1.50;;;3.90;99.90;;;;;;4851229;28;20400;-76
2021/01/19 12:26:59;;;;;;;1.50;1.40;;;3.90;99.90;;;;;;4824155;29;20411;-76
2021/01/19 12:29:27;;;;;;;1.60;1.40;;;3.90;99.90;;;;;;4883099;28;20411;-76
2021/01/19 12:31:59;;;;;;;1.75;1.65;;;3.90;99.90;;;;;;4850898;29;20482;-77
2021/01/19 12:34:24;;;;;;;2.22;1.63;;;4.00;99.90;;;;;;4841739;29;20405;-76
2021/01/19 12:36:50;;;;;;;3.58;2.67;;;3.90;99.90;;;;;;4864619;28;20768;-76
2021/01/19 12:39:16;;;;;;;3.85;2.50;;;3.90;99.90;;;;;;4845030;28;20473;-76
2021/01/19 12:41:41;;;;;;;3.27;2.00;;;3.80;99.90;;;;;;4853297;29;20901;-77
2021/01/19 12:44:07;;;;;;;2.22;1.95;;;3.90;99.90;;;;;;4847357;29;20421;-76
2021/01/19 12:46:33;;;;;;;3.07;1.93;;;3.60;99.90;;;;;;4879592;29;20393;-77
2021/01/19 12:48:58;;;;;;;2.33;1.90;;;3.40;99.90;;;;;;4883062;28;20429;-81
2021/01/19 12:51:25;;;;;;;4.15;2.05;;;3.30;99.90;;;;;;4887694;29;20401;-79
2021/01/19 12:53:51;;;;;;;2.33;2.13;;;3.10;99.90;;;;;;4864942;29;20510;-77
2021/01/19 12:56:17;;;;;;;2.95;2.47;;;3.00;99.90;;;;;;4866221;29;20517;-80
2021/01/19 12:58:43;;;;;;;4.27;1.70;;;2.90;99.90;;;;;;4850931;28;20427;-82
2021/01/19 13:01:09;;;;;;;2.15;1.80;;;2.80;99.90;;;;;;4855253;29;20413;-77
2021/01/19 13:03:35;;;;;;;1.77;1.60;;;2.70;99.90;;;;;;4915532;29;20901;-78
2021/01/19 13:06:00;;;;;;;2.08;1.52;;;2.40;99.90;;;;;;4848034;29;20418;-77